createdAt,value
2023-05-15T00:00:58.491Z,15.69
2023-05-15T00:03:26.257Z,15.64
2023-05-15T00:05:53.175Z,15.58
2023-05-15T00:08:20.103Z,15.53
2023-05-15T00:10:57.433Z,15.45
2023-05-15T00:13:28.190Z,15.35
2023-05-15T00:15:55.369Z,15.32
2023-05-15T00:18:22.421Z,15.32
2023-05-15T00:20:49.565Z,15.29
2023-05-15T00:23:16.375Z,15.23
2023-05-15T00:25:43.357Z,15.20
2023-05-15T00:28:10.301Z,15.19
2023-05-15T00:30:37.352Z,15.18
2023-05-15T00:33:04.352Z,15.20
2023-05-15T00:35:32.382Z,15.17
2023-05-15T00:37:59.320Z,15.08
2023-05-15T00:40:26.264Z,15.11
2023-05-15T00:42:53.327Z,15.12
2023-05-15T00:45:20.394Z,15.08
2023-05-15T00:47:47.466Z,15.03
2023-05-15T00:50:14.458Z,14.98
2023-05-15T00:52:41.378Z,14.92
2023-05-15T00:55:09.086Z,14.87
2023-05-15T00:57:35.976Z,14.81
2023-05-15T01:00:10.507Z,14.74
2023-05-15T01:02:38.107Z,14.71
2023-05-15T01:05:07.700Z,14.73
2023-05-15T01:07:36.114Z,14.80
2023-05-15T01:10:04.440Z,14.87
2023-05-15T01:12:32.226Z,14.92
2023-05-15T01:14:59.044Z,14.93
2023-05-15T01:17:26.178Z,14.95
2023-05-15T01:19:54.221Z,14.94
2023-05-15T01:22:30.820Z,14.92
2023-05-15T01:25:16.357Z,14.85
2023-05-15T01:28:33.681Z,14.78
2023-05-15T01:31:14.442Z,14.71
2023-05-15T01:33:43.199Z,14.71
2023-05-15T01:36:31.582Z,14.70
2023-05-15T01:38:59.905Z,14.68
2023-05-15T01:41:31.735Z,14.65
2023-05-15T01:44:20.384Z,14.54
2023-05-15T01:46:50.539Z,14.40
2023-05-15T01:49:18.989Z,14.28
2023-05-15T01:51:47.392Z,14.19
2023-05-15T01:54:14.767Z,14.09
2023-05-15T01:56:42.117Z,14.06
2023-05-15T01:59:09.021Z,14.05
2023-05-15T02:01:35.913Z,14.04
2023-05-15T02:04:02.823Z,14.00
2023-05-15T02:06:31.312Z,13.99
2023-05-15T02:08:58.117Z,13.96
2023-05-15T02:11:25.059Z,13.92
2023-05-15T02:13:52.409Z,13.89
2023-05-15T02:16:19.645Z,13.86
2023-05-15T02:18:46.898Z,13.88
2023-05-15T02:21:14.363Z,13.93
2023-05-15T02:23:42.462Z,13.96
2023-05-15T02:26:21.666Z,13.97
2023-05-15T02:29:00.902Z,14.00
2023-05-15T02:32:06.114Z,14.04
2023-05-15T02:34:52.678Z,14.08
2023-05-15T02:37:24.948Z,14.08
2023-05-15T02:39:54.572Z,14.05
2023-05-15T02:42:21.526Z,14.07
2023-05-15T02:44:48.871Z,14.12
2023-05-15T02:47:15.927Z,14.19
2023-05-15T02:49:42.945Z,14.23
2023-05-15T02:52:10.198Z,14.27
2023-05-15T02:54:37.042Z,14.28
2023-05-15T02:57:04.945Z,14.28
2023-05-15T02:59:32.263Z,14.27
2023-05-15T03:01:59.212Z,14.25
2023-05-15T03:04:26.045Z,14.24
2023-05-15T03:06:53.100Z,14.26
2023-05-15T03:09:20.467Z,14.32
2023-05-15T03:11:47.524Z,14.39
2023-05-15T03:14:14.835Z,14.42
2023-05-15T03:16:42.318Z,14.41
2023-05-15T03:19:09.591Z,14.36
2023-05-15T03:21:36.537Z,14.35
2023-05-15T03:24:03.466Z,14.36
2023-05-15T03:26:30.308Z,14.36
2023-05-15T03:28:57.987Z,14.35
2023-05-15T03:31:25.137Z,14.36
2023-05-15T03:33:52.002Z,14.39
2023-05-15T03:36:18.884Z,14.48
2023-05-15T03:38:45.746Z,14.57
2023-05-15T03:41:12.676Z,14.62
2023-05-15T03:43:39.670Z,14.65
2023-05-15T03:46:06.620Z,14.69
2023-05-15T03:48:33.502Z,14.74
2023-05-15T03:51:00.546Z,14.79
2023-05-15T03:53:30.909Z,14.85
2023-05-15T03:55:58.101Z,14.93
2023-05-15T03:58:26.331Z,15.03
2023-05-15T04:00:53.394Z,15.16
2023-05-15T04:03:20.674Z,15.24
2023-05-15T04:05:50.366Z,15.31
2023-05-15T04:08:17.247Z,15.36
2023-05-15T04:10:44.055Z,15.38
2023-05-15T04:13:10.941Z,15.38
2023-05-15T04:15:37.863Z,15.42
2023-05-15T04:18:04.936Z,15.49
2023-05-15T04:20:33.828Z,15.52
2023-05-15T04:23:35.216Z,15.53
2023-05-15T04:26:05.445Z,15.64
2023-05-15T04:28:32.684Z,15.82
2023-05-15T04:30:59.633Z,15.98
2023-05-15T04:33:26.683Z,16.24
2023-05-15T04:35:53.625Z,16.41
2023-05-15T04:38:20.408Z,16.52
2023-05-15T04:40:47.524Z,16.65
2023-05-15T04:43:14.574Z,16.74
2023-05-15T04:45:41.480Z,16.82
2023-05-15T04:48:08.625Z,16.86
2023-05-15T04:50:37.045Z,16.94
2023-05-15T04:53:03.916Z,17.01
2023-05-15T04:55:35.616Z,17.06
2023-05-15T04:58:02.588Z,17.10
2023-05-15T05:00:29.572Z,17.18
2023-05-15T05:02:56.663Z,17.33
2023-05-15T05:05:23.896Z,17.50
2023-05-15T05:07:52.220Z,17.62
2023-05-15T05:10:19.366Z,17.62
2023-05-15T05:12:46.367Z,17.83
2023-05-15T05:15:13.259Z,17.95
2023-05-15T05:17:40.468Z,18.04
2023-05-15T05:20:12.940Z,18.13
2023-05-15T05:22:40.942Z,18.22
2023-05-15T05:25:08.306Z,18.30
2023-05-15T05:27:35.256Z,18.39
2023-05-15T05:30:02.364Z,18.46
2023-05-15T05:32:29.420Z,18.53
2023-05-15T05:34:56.410Z,18.61
2023-05-15T05:37:23.633Z,18.68
2023-05-15T05:39:50.606Z,18.76
2023-05-15T05:42:28.947Z,18.82
2023-05-15T05:44:55.960Z,18.91
2023-05-15T05:48:14.997Z,19.04
2023-05-15T05:50:45.148Z,19.10
2023-05-15T05:53:12.203Z,19.05
2023-05-15T05:55:39.138Z,19.09
2023-05-15T05:58:14.558Z,19.22
2023-05-15T06:00:45.217Z,19.43
2023-05-15T06:03:18.374Z,19.52
2023-05-15T06:05:51.313Z,19.52
2023-05-15T06:08:18.587Z,19.43
2023-05-15T06:10:48.562Z,19.46
2023-05-15T06:13:21.244Z,19.63
2023-05-15T06:15:48.195Z,19.64
2023-05-15T06:18:15.165Z,19.65
2023-05-15T06:20:45.378Z,19.80
2023-05-15T06:23:12.693Z,19.83
2023-05-15T06:25:46.847Z,19.90
2023-05-15T06:28:17.467Z,20.00
2023-05-15T06:30:51.119Z,20.11
2023-05-15T06:33:20.274Z,20.21
2023-05-15T06:35:49.511Z,20.30
2023-05-15T06:38:17.129Z,20.40
2023-05-15T06:40:44.128Z,20.51
2023-05-15T06:43:11.227Z,20.62
2023-05-15T06:45:44.623Z,20.71
2023-05-15T06:48:12.333Z,20.81
2023-05-15T06:54:29.836Z,21.16
2023-05-15T06:57:02.714Z,21.30
2023-05-15T06:59:29.690Z,21.39
2023-05-15T07:01:56.589Z,21.45
2023-05-15T07:04:23.553Z,21.43
2023-05-15T07:07:25.686Z,21.44
2023-05-15T07:09:52.635Z,21.49
2023-05-15T07:12:19.659Z,21.67
2023-05-15T07:14:46.558Z,21.68
2023-05-15T07:17:14.381Z,21.74
2023-05-15T07:20:06.912Z,21.85
2023-05-15T07:22:41.531Z,21.95
2023-05-15T07:25:57.365Z,22.07
2023-05-15T07:31:02.842Z,22.04
2023-05-15T07:33:30.243Z,22.29
2023-05-15T07:35:57.050Z,22.40
2023-05-15T07:38:24.338Z,22.60
2023-05-15T07:40:51.663Z,22.79
2023-05-15T07:43:28.145Z,22.89
2023-05-15T07:45:58.198Z,22.94
2023-05-15T07:48:29.087Z,22.88
2023-05-15T07:51:17.823Z,23.03
2023-05-15T07:54:04.909Z,23.11
2023-05-15T07:56:32.643Z,23.17
2023-05-15T07:59:02.296Z,23.22
2023-05-15T08:01:30.767Z,23.26
2023-05-15T08:03:59.655Z,23.32
2023-05-15T08:06:26.523Z,23.28
2023-05-15T08:08:53.731Z,23.21
2023-05-15T08:11:21.721Z,23.25
2023-05-15T08:13:48.696Z,23.32
2023-05-15T08:16:15.901Z,23.38
2023-05-15T08:18:42.816Z,23.45
2023-05-15T08:21:10.088Z,23.50
2023-05-15T08:23:37.145Z,23.56
2023-05-15T08:26:04.042Z,23.64
2023-05-15T08:28:31.163Z,23.71
2023-05-15T08:30:58.121Z,23.79
2023-05-15T08:33:25.081Z,23.86
2023-05-15T08:35:52.684Z,23.91
2023-05-15T08:38:19.613Z,23.96
2023-05-15T08:40:47.284Z,24.03
2023-05-15T08:43:16.820Z,24.10
2023-05-15T08:45:44.034Z,24.20
2023-05-15T08:48:14.049Z,24.28
2023-05-15T08:50:41.219Z,24.37
2023-05-15T08:53:08.344Z,24.47
2023-05-15T08:55:35.192Z,24.59
2023-05-15T08:58:02.028Z,24.73
2023-05-15T09:00:29.068Z,24.88
2023-05-15T09:02:59.714Z,25.03
2023-05-15T09:05:27.545Z,25.17
2023-05-15T09:07:57.348Z,25.32
2023-05-15T09:10:24.245Z,25.46
2023-05-15T09:12:52.020Z,25.61
2023-05-15T09:15:22.228Z,25.76
2023-05-15T09:17:49.706Z,25.92
2023-05-15T09:20:35.613Z,26.09
2023-05-15T09:23:03.783Z,26.24
2023-05-15T09:25:44.843Z,26.39
2023-05-15T09:28:25.681Z,26.52
2023-05-15T09:30:57.566Z,26.61
2023-05-15T09:33:31.885Z,26.70
2023-05-15T09:35:59.174Z,26.74
2023-05-15T09:38:26.005Z,26.75
2023-05-15T09:41:08.140Z,26.77
2023-05-15T09:43:39.026Z,26.82
2023-05-15T09:46:06.597Z,26.90
2023-05-15T09:48:34.723Z,27.01
2023-05-15T09:51:02.357Z,27.11
2023-05-15T09:53:29.282Z,27.22
2023-05-15T09:55:56.409Z,27.33
2023-05-15T09:58:23.593Z,27.41
2023-05-15T10:00:50.688Z,27.46
2023-05-15T10:03:21.165Z,27.52
2023-05-15T10:05:48.337Z,27.60
2023-05-15T10:08:16.368Z,27.69
2023-05-15T10:10:43.884Z,27.74
2023-05-15T10:13:11.176Z,27.79
2023-05-15T10:15:38.112Z,27.84
2023-05-15T10:18:05.244Z,27.85
2023-05-15T10:20:35.685Z,27.82
2023-05-15T10:23:04.536Z,27.81
2023-05-15T10:25:40.797Z,27.80
2023-05-15T10:28:11.730Z,27.87
2023-05-15T10:30:38.896Z,27.90
2023-05-15T10:33:06.870Z,28.03
2023-05-15T10:35:39.272Z,28.08
2023-05-15T10:38:06.653Z,28.08
2023-05-15T10:40:33.978Z,28.12
2023-05-15T10:43:01.803Z,28.31
2023-05-15T10:45:29.460Z,28.36
2023-05-15T10:47:56.432Z,28.26
2023-05-15T10:50:23.467Z,28.28
2023-05-15T10:52:53.623Z,28.36
2023-05-15T10:55:20.557Z,28.44
2023-05-15T10:57:47.748Z,28.52
2023-05-15T11:00:24.236Z,28.55
2023-05-15T11:02:54.030Z,28.70
2023-05-15T11:05:21.109Z,28.81
2023-05-15T11:08:18.464Z,28.91
2023-05-15T11:10:45.267Z,28.98
2023-05-15T11:13:12.214Z,28.89
2023-05-15T11:15:43.571Z,28.90
2023-05-15T11:18:10.768Z,28.93
2023-05-15T11:20:43.108Z,28.95
2023-05-15T11:23:10.066Z,28.97
2023-05-15T11:25:37.415Z,29.03
2023-05-15T11:28:04.649Z,29.09
2023-05-15T11:30:41.463Z,29.16
2023-05-15T11:33:10.530Z,29.21
2023-05-15T11:35:37.709Z,29.29
2023-05-15T11:38:11.573Z,29.40
2023-05-15T11:40:52.725Z,29.49
2023-05-15T11:43:26.627Z,29.55
2023-05-15T11:46:03.173Z,29.57
2023-05-15T11:48:39.538Z,29.57
2023-05-15T11:51:08.517Z,29.54
2023-05-15T11:53:35.522Z,29.54
2023-05-15T11:56:02.493Z,29.56
2023-05-15T11:58:29.315Z,29.60
2023-05-15T12:00:56.497Z,29.63
2023-05-15T12:03:28.202Z,29.71
2023-05-15T12:05:59.616Z,29.80
2023-05-15T12:08:34.075Z,29.90
2023-05-15T12:11:01.266Z,30.06
2023-05-15T12:13:28.341Z,30.13
2023-05-15T12:15:55.812Z,30.16
2023-05-15T12:18:23.398Z,30.15
2023-05-15T12:20:51.977Z,30.07
2023-05-15T12:23:21.086Z,29.94
2023-05-15T12:25:48.067Z,29.84
2023-05-15T12:28:15.066Z,29.72
2023-05-15T12:30:42.336Z,29.62
2023-05-15T12:33:10.318Z,29.63
2023-05-15T12:35:38.259Z,29.62
2023-05-15T12:38:05.892Z,29.61
2023-05-15T12:40:36.871Z,29.58
2023-05-15T12:43:07.421Z,29.50
2023-05-15T12:45:36.372Z,29.47
2023-05-15T12:48:03.729Z,29.41
2023-05-15T12:50:32.583Z,29.36
2023-05-15T12:53:01.469Z,29.29
2023-05-15T12:55:38.099Z,29.23
2023-05-15T12:58:12.233Z,29.23
2023-05-15T13:00:40.673Z,29.31
2023-05-15T13:03:13.527Z,29.42
2023-05-15T13:05:47.279Z,29.61
2023-05-15T13:08:48.138Z,29.78
2023-05-15T13:11:15.141Z,29.88
2023-05-15T13:13:51.544Z,29.87
2023-05-15T13:16:22.478Z,29.84
2023-05-15T13:18:49.474Z,29.82
2023-05-15T13:21:16.608Z,29.82
2023-05-15T13:23:43.804Z,29.86
2023-05-15T13:26:16.418Z,29.88
2023-05-15T13:28:47.039Z,29.90
2023-05-15T13:31:20.116Z,29.95
2023-05-15T13:33:49.770Z,29.98
2023-05-15T13:36:16.569Z,29.97
2023-05-15T13:38:43.377Z,29.95
2023-05-15T13:41:10.375Z,30.00
2023-05-15T13:43:37.221Z,30.19
2023-05-15T13:46:04.682Z,30.43
2023-05-15T13:48:32.078Z,30.62
2023-05-15T13:50:58.862Z,30.78
2023-05-15T13:53:25.767Z,31.05
2023-05-15T13:55:53.115Z,31.77
2023-05-15T13:58:20.028Z,32.90
2023-05-15T14:00:47.318Z,34.20
2023-05-15T14:03:15.214Z,35.49
2023-05-15T14:05:42.445Z,36.69
2023-05-15T14:08:09.476Z,37.67
2023-05-15T14:10:37.410Z,38.44
2023-05-15T14:13:04.472Z,39.14
2023-05-15T14:15:34.424Z,39.70
2023-05-15T14:25:37.812Z,41.36
2023-05-15T14:28:05.109Z,41.54
2023-05-15T14:30:32.010Z,41.44
2023-05-15T14:33:00.314Z,41.18
2023-05-15T14:35:27.236Z,40.91
2023-05-15T14:37:54.156Z,40.60
2023-05-15T14:40:22.364Z,40.35
2023-05-15T14:42:51.953Z,40.20
2023-05-15T14:45:18.901Z,40.10
2023-05-15T14:47:45.984Z,39.98
2023-05-15T14:50:12.854Z,39.90
2023-05-15T14:52:39.936Z,39.79
2023-05-15T14:55:09.167Z,39.61
2023-05-15T14:57:37.730Z,39.37
2023-05-15T15:00:06.753Z,39.07
2023-05-15T15:02:36.579Z,38.73
2023-05-15T15:05:04.672Z,38.39
2023-05-15T15:07:31.736Z,38.03
2023-05-15T15:10:23.777Z,37.69
2023-05-15T15:12:54.049Z,37.28
2023-05-15T15:15:21.047Z,36.89
2023-05-15T15:17:48.029Z,36.56
2023-05-15T15:20:16.101Z,36.31
2023-05-15T15:22:42.963Z,36.01
2023-05-15T15:25:22.330Z,35.60
2023-05-15T15:27:49.334Z,35.20
2023-05-15T15:30:16.458Z,34.83
2023-05-15T15:32:44.657Z,34.46
2023-05-15T15:35:11.814Z,34.09
2023-05-15T15:37:39.154Z,33.72
2023-05-15T15:40:08.201Z,33.38
2023-05-15T15:42:35.089Z,33.08
2023-05-15T15:45:02.014Z,32.86
2023-05-15T15:47:32.401Z,32.69
2023-05-15T15:49:59.809Z,32.48
2023-05-15T15:52:26.956Z,32.28
2023-05-15T15:54:53.992Z,32.06
2023-05-15T15:57:21.362Z,31.87
2023-05-15T15:59:49.426Z,31.76
2023-05-15T16:02:16.874Z,31.64
2023-05-15T16:04:47.743Z,31.48
2023-05-15T16:07:17.641Z,31.31
2023-05-15T16:10:00.230Z,31.11
2023-05-15T16:12:46.752Z,30.92
2023-05-15T16:15:23.279Z,30.73
2023-05-15T16:20:54.350Z,30.36
2023-05-15T16:23:22.816Z,30.14
2023-05-15T16:25:49.653Z,29.94
2023-05-15T16:28:16.604Z,29.77
2023-05-15T16:30:49.427Z,29.56
2023-05-15T16:33:20.063Z,29.36
2023-05-15T16:35:47.388Z,29.16
2023-05-15T16:38:14.725Z,28.97
2023-05-15T16:40:41.670Z,28.79
2023-05-15T16:43:08.544Z,28.63
2023-05-15T16:45:35.471Z,28.45
2023-05-15T16:48:02.489Z,28.28
2023-05-15T16:50:35.003Z,28.11
2023-05-15T16:53:02.566Z,27.91
2023-05-15T16:55:29.591Z,27.69
2023-05-15T16:57:56.525Z,27.47
2023-05-15T17:00:23.538Z,27.27
2023-05-15T17:03:37.399Z,27.09
2023-05-15T17:06:05.257Z,26.88
2023-05-15T17:08:32.865Z,26.70
2023-05-15T17:10:59.714Z,26.57
2023-05-15T17:13:27.735Z,26.42
2023-05-15T17:16:01.270Z,26.28
2023-05-15T17:18:34.898Z,26.17
2023-05-15T17:21:08.471Z,26.09
2023-05-15T17:23:35.717Z,26.01
2023-05-15T17:26:04.282Z,25.92
2023-05-15T17:28:31.482Z,25.85
2023-05-15T17:30:58.399Z,25.75
2023-05-15T17:33:25.763Z,25.63
2023-05-15T17:35:53.982Z,25.50
2023-05-15T17:38:24.479Z,25.37
2023-05-15T17:41:19.776Z,25.24
2023-05-15T17:43:46.664Z,25.11
2023-05-15T17:46:19.563Z,25.00
2023-05-15T17:48:46.589Z,24.90
2023-05-15T17:51:13.509Z,24.81
2023-05-15T17:53:40.381Z,24.70
2023-05-15T17:56:07.382Z,24.59
2023-05-15T17:58:34.258Z,24.49
2023-05-15T18:01:01.419Z,24.40
2023-05-15T18:03:28.510Z,24.34
2023-05-15T18:05:55.607Z,24.28
2023-05-15T18:08:22.630Z,24.22
2023-05-15T18:10:49.753Z,24.15
2023-05-15T18:13:17.181Z,24.07
2023-05-15T18:15:44.269Z,23.99
2023-05-15T18:18:11.393Z,23.90
2023-05-15T18:20:38.430Z,23.82
2023-05-15T18:23:05.653Z,23.72
2023-05-15T18:25:36.926Z,23.62
2023-05-15T18:28:04.715Z,23.53
2023-05-15T18:30:31.580Z,23.46
2023-05-15T18:32:58.458Z,23.36
2023-05-15T18:35:25.482Z,23.24
2023-05-15T18:37:52.431Z,23.15
2023-05-15T18:40:19.503Z,23.05
2023-05-15T18:42:46.709Z,22.95
2023-05-15T18:45:13.741Z,22.86
2023-05-15T18:47:40.625Z,22.79
2023-05-15T18:50:08.276Z,22.71
2023-05-15T18:52:35.099Z,22.64
2023-05-15T18:55:02.078Z,22.56
2023-05-15T18:57:29.023Z,22.48
2023-05-15T18:59:56.010Z,22.40
2023-05-15T19:02:24.574Z,22.31
2023-05-15T19:04:53.163Z,22.24
2023-05-15T19:07:20.053Z,22.15
2023-05-15T19:09:46.928Z,22.07
2023-05-15T19:12:13.852Z,22.00
2023-05-15T19:14:40.669Z,21.91
2023-05-15T19:17:07.546Z,21.84
2023-05-15T19:19:34.382Z,21.79
2023-05-15T19:22:01.317Z,21.74
2023-05-15T19:24:28.150Z,21.69
2023-05-15T19:26:55.247Z,21.63
2023-05-15T19:29:22.249Z,21.56
2023-05-15T19:31:49.783Z,21.48
2023-05-15T19:34:16.770Z,21.43
2023-05-15T19:36:45.952Z,21.39
2023-05-15T19:39:12.984Z,21.33
2023-05-15T19:41:39.826Z,21.25
2023-05-15T19:44:08.265Z,21.18
2023-05-15T19:59:40.276Z,21.06
2023-05-15T20:02:09.782Z,21.26
2023-05-15T20:04:37.081Z,21.18
2023-05-15T20:07:04.020Z,21.08
2023-05-15T20:09:30.771Z,20.96
2023-05-15T20:11:57.698Z,20.87
2023-05-15T20:14:24.370Z,20.78
2023-05-15T20:16:50.979Z,20.72
2023-05-15T20:19:21.306Z,20.66
2023-05-15T20:21:48.179Z,20.59
2023-05-15T20:24:16.648Z,20.54
2023-05-15T20:26:43.848Z,20.49
2023-05-15T20:29:10.778Z,20.43
2023-05-15T20:31:39.546Z,20.38
2023-05-15T20:34:07.579Z,20.33
2023-05-15T20:36:38.236Z,20.29
2023-05-15T20:39:05.361Z,20.27
2023-05-15T20:41:33.135Z,20.25
2023-05-15T20:43:59.961Z,20.24
2023-05-15T20:46:29.693Z,20.24
2023-05-15T20:48:57.017Z,20.23
2023-05-15T20:51:24.012Z,20.23
2023-05-15T20:53:50.700Z,20.22
2023-05-15T20:56:17.380Z,20.22
2023-05-15T20:58:44.154Z,20.23
2023-05-15T21:01:10.893Z,20.24
2023-05-15T21:03:37.902Z,20.24
2023-05-15T21:06:04.984Z,20.25
2023-05-15T21:08:32.963Z,20.24
2023-05-15T21:11:00.398Z,20.22
2023-05-15T21:13:27.561Z,20.20
2023-05-15T21:15:54.185Z,20.19
2023-05-15T21:18:22.436Z,20.18
2023-05-15T21:20:49.093Z,20.17
2023-05-15T21:23:16.078Z,20.15
2023-05-15T21:25:42.928Z,20.14
2023-05-15T21:28:09.701Z,20.12
2023-05-15T21:30:36.535Z,20.12
2023-05-15T21:33:03.355Z,20.11
2023-05-15T21:35:31.185Z,20.09
2023-05-15T21:37:58.806Z,20.07
2023-05-15T21:40:25.871Z,20.05
2023-05-15T21:42:52.789Z,20.04
2023-05-15T21:45:20.038Z,20.02
2023-05-15T21:47:46.672Z,20.00
2023-05-15T21:50:13.794Z,19.96
2023-05-15T21:52:40.512Z,19.92
2023-05-15T21:55:07.625Z,19.88
2023-05-15T21:57:34.521Z,19.83
2023-05-15T22:00:01.698Z,19.77
2023-05-15T22:02:28.831Z,19.69
2023-05-15T22:04:55.628Z,19.63
2023-05-15T22:07:22.293Z,19.59
2023-05-15T22:09:49.077Z,19.53
2023-05-15T22:12:15.956Z,19.49
2023-05-15T22:14:54.645Z,19.44
2023-05-15T22:17:26.500Z,19.38
2023-05-15T22:19:53.401Z,19.33
2023-05-15T22:22:20.225Z,19.28
2023-05-15T22:24:47.350Z,19.24
2023-05-15T22:27:15.942Z,19.21
2023-05-15T22:29:42.718Z,19.17
2023-05-15T22:32:09.524Z,19.13
2023-05-15T22:34:36.348Z,19.09
2023-05-15T22:37:03.124Z,19.06
2023-05-15T22:39:30.274Z,19.03
2023-05-15T22:41:57.191Z,18.97
2023-05-15T22:44:23.894Z,18.94
2023-05-15T22:46:50.772Z,19.06
2023-05-15T22:49:24.621Z,18.97
2023-05-15T22:51:52.779Z,18.99
2023-05-15T22:54:23.151Z,18.79
2023-05-15T22:56:51.231Z,18.70
2023-05-15T22:59:18.041Z,18.67
2023-05-15T23:01:45.785Z,18.66
2023-05-15T23:04:12.692Z,18.63
2023-05-15T23:06:40.455Z,18.58
2023-05-15T23:09:10.045Z,18.53
2023-05-15T23:11:37.339Z,18.48
2023-05-15T23:14:04.387Z,18.44
2023-05-15T23:16:31.233Z,18.40
2023-05-15T23:18:58.302Z,18.33
2023-05-15T23:21:25.176Z,18.28
2023-05-15T23:23:52.009Z,18.24
2023-05-15T23:26:18.811Z,18.20
2023-05-15T23:28:45.552Z,18.17
2023-05-15T23:31:13.329Z,18.14
2023-05-15T23:33:40.518Z,18.12
2023-05-15T23:36:07.436Z,18.09
2023-05-15T23:38:34.360Z,18.06
2023-05-15T23:41:01.402Z,18.01
2023-05-15T23:43:28.361Z,17.96
2023-05-15T23:45:55.336Z,17.94
2023-05-15T23:48:22.047Z,17.93
2023-05-15T23:50:48.987Z,17.91
2023-05-15T23:53:15.725Z,17.90
2023-05-15T23:55:42.454Z,17.89
2023-05-15T23:58:09.206Z,17.90
